Point Mugu Naval Air Station (Naval Base Ventura Co)
KNTD : now visible

Airfield :











YOU CAN JOIN US ON...

 
LOGIN :

Register | Disclaimer

   EN    FR    IT 

 









Legend :    VFR   Marginal VFR   IFR   Intensive IFR   Very Intensive IFR
Visi :
Ceiling :
>= 8 km
>= 3000ft
5 to 8 km
1000 to 3000 ft
1500m to 5 km
500 to 1000 ft
800 to 1500m
200 to 500 ft
< 800m
< 200 ft
Symbols :   Thunderstorms  Fog  Heavy snow  Heavy precipitations  Wind > 20 kt






- Airport Elevation : 13 ft


KNTD - Point Mugu Naval Air Station (Naval Base Ventura Co)

CURRENT METAR :
  • 260652Z 00000KT 4SM BR FEW007 14/10 A3009 RMK SLP188 LAST T01420104

EXPIRED METARs :
  • 260552Z 00000KT 3SM BR FEW007 14/11 A3008 RMK SLP185 T01440108 10156 20136 55005
  • 260452Z 00000KT 3SM BR FEW007 14/10 A3006 RMK SLP178 T01380102
  • 260430Z VRB04KT 3SM BR FEW007 14/11 A3004 RMK T01360106

TAF TAF KNTD
Valid from the 26 at 07:00 until the 27 at 07:00 UTC


2607/2707 VRB06KT 4800 BR SCT007 BKN100 QNH3002INS
TEMPO 2609/2615 0800 FG BKN002 BKN080
FM261500 VRB06KT 6000 BR OVC012 QNH3004INS
TEMPO 2615/2621 3200 BR OVC007
FM262100 VRB06KT 6000 BR SCT004 BKN012 QNH3008INS
TEMPO 2621/2703 3200 BR BKN004 BKN010 AUTOMATED SENSOR METWATCH 2607 TIL 2615 T10/2615Z T19/2621Z FS30149



MET'MAP, your aeronautical weather chart ! - Copyright ORBIFLY December 2007 - Disclaimer

ORBIFLY MET'MAP TEAM :

Programming & Development : Alexandra Zaïnal
Concept & original design : Baudouin d'Aumeries
Assistance for programming : Marc-Olivier Méhu
Technical & hardware support : Manuel Goepfert

Contact : metmap@orbifly.com




SOURCES & CREDITS :

   NOAA       Earth
Advisory